Weather observations for the past three days for
McCall Airport
Metric (Imperial)
Date Time (mdt) Wind (kph) Vis. (km) Weather Sky Cond. Temperature (ºC) Relative Humidity Wind Chill (°C) Heat Index (°C) Pressure Precipitation (cm)
Air Dwpt 6 hour altimeter (cm) sea level (mb) 1 hr 3 hr 6 hr
Max. Min.
09 08:51 S 6 16.09 Fair CLR 6.7 -0.6 60% 76.68 1020.6
09 07:51 S 9 16.09 Fair CLR 2.8 -1.1 76% 1 76.66 1020.6
09 06:51 NE 11 16.09 Fair CLR 3.3 -0.6 76% 1 76.61 1019.7
09 05:51 N 13 16.09 Fair CLR 3.3 -0.6 7.2 1.7 76% 0 76.58 1019.4
09 04:51 N 7 16.09 Fair CLR 3.9 -0.6 73% 2 76.58 1019.4
09 03:51 NE 7 16.09 Fair CLR 2.2 -0.6 82% 0 76.58 1019.5
09 02:51 Calm 16.09 Fair CLR 3.3 -0.6 76% 76.56 1019.0
09 01:51 NE 7 16.09 Fair CLR 3.9 -0.6 73% 2 76.56 1018.7
09 00:51 Calm 16.09 Fair CLR 5.6 0 68% 76.5 1018.0
08 23:51 Calm 16.09 Fair CLR 6.7 0 18.3 6.1 63% 76.45 1017.6
08 22:51 Calm 16.09 Fair CLR 7.8 -0.6 56% 76.43 1017.0
08 21:51 NW 6 16.09 Fair CLR 12.8 -2.8 34% 76.38 1016.0
08 20:51 W 7 16.09 Fair CLR 15 -4.4 26% 76.3 1015.3
08 19:51 W 13 16.09 Fair CLR 17.2 -5 22% 76.28 1015.0
08 18:51 W 11 16.09 Fair CLR 17.8 -3.9 23% 76.3 1015.5
08 17:51 Calm 16.09 Fair CLR 17.2 -3.9 18.3 15.6 24% 76.3 1015.7
08 16:51 W 13 16.09 Fair CLR 17.2 -3.9 24% 76.3 1015.6
08 15:51 W 19 G 30 16.09 Fair CLR 17.8 -5 21% 76.35 1015.8
08 14:51 W 19 16.09 Fair CLR 17.2 -5 22% 76.35 1015.4
08 13:51 W 13 16.09 Fair CLR 18.3 -4.4 21% 76.33 1014.8
08 12:51 S 13 16.09 Fair CLR 17.2 -1.1 29% 76.35 1015.1
08 11:51 Calm 16.09 Fair CLR 15.6 -1.7 15.6 1.7 31% 76.38 1015.7
08 10:51 SW 7 16.09 Fair CLR 13.9 2.2 45% 76.35 1015.4
08 09:51 Vrbl 6 16.09 Fair CLR 11.1 2.8 57% 76.38 1016.1
08 08:51 Calm 16.09 Fair CLR 8.3 1.1 61% 76.35 1016.0
08 07:51 Calm 16.09 Fair CLR 4.4 1.1 79% 76.35 1016.2
08 06:51 Calm 16.09 Fair CLR 1.7 0 89% 76.33 1016.0
08 05:51 Calm 16.09 Fair CLR 2.8 0.6 10 2.2 86% 76.3 1015.5
08 04:51 Calm 16.09 Fair CLR 3.3 1.1 86% 76.3 1015.3
08 03:51 Calm 16.09 Fair CLR 5 1.1 76% 76.3 1014.8
08 02:51 NW 6 16.09 Fair CLR 6.7 1.7 71% 76.3 1014.6
08 01:51 N 7 16.09 Fair CLR 8.3 1.7 63% 7 76.3 1014.5
08 00:51 N 7 16.09 Fair CLR 8.9 2.2 63% 8 76.3 1014.6
07 23:51 NE 7 16.09 Fair CLR 10 3.3 19.4 10 63% 9 76.3 1014.6
07 22:51 N 11 16.09 Fair CLR 12.2 2.8 53% 76.28 1014.4
07 21:51 Calm 16.09 Fair CLR 12.2 2.2 51% 76.25 1014.3
07 20:51 W 7 16.09 Fair CLR 15 1.1 39% 76.2 1013.3
07 19:51 W 9 16.09 Fair CLR 17.8 0.6 32% 76.17 1013.0
07 18:51 W 13 16.09 A Few Clouds FEW080 18.9 0.6 29% 76.2 1013.6
07 17:51 W 17 16.09 Fair CLR 19.4 0 19.4 15 27% 76.2 1013.4
07 16:51 W 19 16.09 Fair CLR 19.4 -2.2 23% 76.2 1013.0
07 15:51 W 20 G 28 16.09 Fair CLR 18.9 -1.7 25% 76.23 1013.5
07 14:51 W 15 G 31 16.09 Fair CLR 18.3 0.6 31% 76.25 1014.0
07 13:51 W 15 16.09 Mostly Cloudy BKN070 18.3 1.7 33% 76.28 1014.0
07 12:51 Calm 16.09 Fair CLR 16.7 0.6 34% 76.28 1014.2
07 11:51 S 13 16.09 Fair CLR 15 2.8 15 3.9 44% 76.3 1014.8
07 10:51 Calm 16.09 Fair CLR 12.8 2.8 51% 76.33 1015.3
07 09:51 Calm 16.09 Fair CLR 12.2 3.3 55% 76.33 1015.2
07 08:51 N 6 16.09 Fair CLR 10 4.4 68% 76.33 1015.0
07 07:51 Calm 16.09 NULL NULL 7.2 3.9 80% 76.3 1015.0
07 06:51 Calm 16.09 Fair CLR 4.4 2.8 89% 76.3 1015.2
07 05:51 Calm 16.09 Fair CLR 4.4 2.8 11.1 4.4 89% 76.28 1015.0
07 04:51 NE 6 16.09 Fair CLR 6.7 3.9 83% 76.28 1014.3
07 03:51 NE 6 16.09 Fair CLR 7.2 3.9 80% 76.28 1014.3
07 02:51 NW 7 16.09 Fair CLR 7.8 4.4 79% 7 76.28 1014.3
07 01:51 N 9 16.09 Fair CLR 8.9 3.9 71% 8 76.3 1014.8
07 00:51 Calm 16.09 Fair CLR 9.4 5 74% 76.3 1014.9
06 23:51 N 7 16.09 Partly Cloudy SCT080 10.6 5.6 17.8 10.6 71% 76.33 1015.2
06 22:51 NE 6 16.09 Mostly Cloudy SCT065 BKN080 11.1 5 66% 76.33 1015.4
06 21:51 Calm 16.09 A Few Clouds FEW080 13.3 5 57% 76.33 1015.4
06 20:51 Calm 16.09 Mostly Cloudy BKN090 15.6 3.9 46% 76.3 1014.7
06 19:51 NW 7 16.09 Fair CLR 16.7 3.3 41% 76.3 1015.2
06 18:51 NW 9 16.09 Fair CLR 17.2 3.3 40% 76.33 1015.8
06 17:51 NW 13 16.09 Fair CLR 17.8 3.3 19.4 13.3 38% 76.33 1015.9
06 16:51 SW 9 16.09 Fair CLR 18.3 2.8 36% 76.33 1015.8
06 15:51 W 11 16.09 Fair CLR 18.3 2.8 36% 76.4 1016.9
06 14:51 NW 17 16.09 NULL NULL 18.3 2.8 36% 76.43 1017.0
06 13:51 NW 13 16.09 Fair CLR 16.7 1.7 37% 76.48 1017.4
06 12:51 Vrbl 6 16.09 Fair CLR 15 1.7 41% 76.5 1017.8
06 11:51 W 9 16.09 Fair CLR 13.9 1.7 13.9 2.8 44% 76.53 1018.6
06 10:51 Vrbl 9 16.09 Fair CLR 12.8 1.7 47% 76.5 1018.1
06 09:51 Calm 16.09 Fair CLR 10.6 1.1 52% 76.5 1018.1
Date Time (mdt) Wind (kph) Vis. (km) Weather Sky Cond. Air Dwpt Max. Min. Relative Humidity Wind Chill (°C) Heat Index (°C) altimeter (cm) sea level (mb) 1 hr 3 hr 6 hr
6 hour
Temperature (ºC) Pressure Precipitation (cm)